createdAt,value
2023-02-22T00:01:35.629Z,4.70
2023-02-22T00:04:07.026Z,4.88
2023-02-22T00:06:34.146Z,4.00
2023-02-22T00:09:02.612Z,4.35
2023-02-22T00:11:31.707Z,3.95
2023-02-22T00:13:58.938Z,4.38
2023-02-22T00:16:26.802Z,4.30
2023-02-22T00:18:54.593Z,4.20
2023-02-22T00:21:22.404Z,4.55
2023-02-22T00:23:49.934Z,4.55
2023-02-22T00:26:23.421Z,4.55
2023-02-22T00:28:54.592Z,4.15
2023-02-22T00:31:21.879Z,4.07
2023-02-22T00:33:49.719Z,4.10
2023-02-22T00:36:17.464Z,4.25
2023-02-22T00:38:44.303Z,4.80
2023-02-22T00:41:12.229Z,4.20
2023-02-22T00:43:39.067Z,4.75
2023-02-22T00:46:06.259Z,4.45
2023-02-22T00:48:33.078Z,4.88
2023-02-22T00:51:00.003Z,4.97
2023-02-22T00:53:26.923Z,5.20
2023-02-22T00:55:54.352Z,5.55
2023-02-22T00:58:21.831Z,4.55
2023-02-22T01:00:48.964Z,5.28
2023-02-22T01:03:18.225Z,5.00
2023-02-22T01:05:45.606Z,5.32
2023-02-22T01:08:15.578Z,4.82
2023-02-22T01:10:42.908Z,4.95
2023-02-22T01:13:12.590Z,4.25
2023-02-22T01:15:42.045Z,4.50
2023-02-22T01:18:09.779Z,3.92
2023-02-22T01:20:37.364Z,4.18
2023-02-22T01:23:07.905Z,4.38
2023-02-22T01:25:35.870Z,5.30
2023-02-22T01:28:05.736Z,5.90
2023-02-22T01:30:35.252Z,7.47
2023-02-22T01:33:04.324Z,8.85
2023-02-22T01:35:35.324Z,9.07
2023-02-22T01:38:02.725Z,7.15
2023-02-22T01:40:32.991Z,9.25
2023-02-22T01:43:02.365Z,11.40
2023-02-22T01:45:34.633Z,10.27
2023-02-22T01:48:13.387Z,11.05
2023-02-22T01:50:47.665Z,8.77
2023-02-22T01:53:18.241Z,4.60
2023-02-22T01:55:47.974Z,4.10
2023-02-22T01:58:18.762Z,4.35
2023-02-22T02:00:45.917Z,4.38
2023-02-22T02:03:18.432Z,4.75
2023-02-22T02:05:46.111Z,4.18
2023-02-22T02:08:24.332Z,4.30
2023-02-22T02:10:53.711Z,3.97
2023-02-22T02:13:20.654Z,4.10
2023-02-22T02:15:49.901Z,4.40
2023-02-22T02:18:16.764Z,4.10
2023-02-22T02:21:08.176Z,4.07
2023-02-22T02:24:05.057Z,3.78
2023-02-22T02:26:53.776Z,3.65
2023-02-22T02:29:43.570Z,3.70
2023-02-22T02:32:44.605Z,4.00
2023-02-22T02:36:11.889Z,3.70
2023-02-22T02:38:59.308Z,4.00
2023-02-22T02:41:46.644Z,4.50
2023-02-22T02:44:29.147Z,4.07
2023-02-22T02:47:03.091Z,3.72
2023-02-22T02:49:39.857Z,4.00
2023-02-22T02:52:11.462Z,7.32
2023-02-22T02:54:40.121Z,11.13
2023-02-22T02:57:09.482Z,9.75
2023-02-22T02:59:38.439Z,8.27
2023-02-22T03:02:34.362Z,7.30
2023-02-22T03:05:07.547Z,8.23
2023-02-22T03:08:04.835Z,6.30
2023-02-22T03:10:52.665Z,5.47
2023-02-22T03:13:48.578Z,4.30
2023-02-22T03:16:19.796Z,3.83
2023-02-22T03:18:55.583Z,4.30
2023-02-22T03:21:41.398Z,4.13
2023-02-22T03:24:14.340Z,4.10
2023-02-22T03:26:46.556Z,4.20
2023-02-22T03:29:17.959Z,3.88
2023-02-22T03:31:51.170Z,3.75
2023-02-22T03:34:27.912Z,4.05
2023-02-22T03:37:06.594Z,3.80
2023-02-22T03:39:36.908Z,3.75
2023-02-22T03:42:13.867Z,4.18
2023-02-22T03:44:43.891Z,3.83
2023-02-22T03:47:19.407Z,3.60
2023-02-22T03:49:53.969Z,4.20
2023-02-22T03:52:23.524Z,3.50
2023-02-22T03:54:54.948Z,4.10
2023-02-22T03:57:37.506Z,3.90
2023-02-22T04:00:08.965Z,3.90
2023-02-22T04:02:44.824Z,3.58
2023-02-22T04:05:18.297Z,4.45
2023-02-22T04:07:45.705Z,4.35
2023-02-22T04:10:16.063Z,4.10
2023-02-22T04:12:43.774Z,4.10
2023-02-22T04:15:15.582Z,5.07
2023-02-22T04:17:43.629Z,6.07
2023-02-22T04:20:13.822Z,6.78
2023-02-22T04:22:48.655Z,4.88
2023-02-22T04:25:16.097Z,5.60
2023-02-22T04:27:43.772Z,6.72
2023-02-22T04:30:12.373Z,5.85
2023-02-22T04:32:39.699Z,4.80
2023-02-22T04:35:07.964Z,4.35
2023-02-22T04:37:35.357Z,4.32
2023-02-22T04:40:08.981Z,4.07
2023-02-22T04:42:37.201Z,5.28
2023-02-22T04:45:06.121Z,5.05
2023-02-22T04:47:33.634Z,4.75
2023-02-22T04:50:00.972Z,4.00
2023-02-22T04:52:29.594Z,3.65
2023-02-22T04:54:57.015Z,4.55
2023-02-22T04:57:24.573Z,9.65
2023-02-22T04:59:51.412Z,4.70
2023-02-22T05:02:19.877Z,4.70
2023-02-22T05:04:46.710Z,5.28
2023-02-22T05:07:13.618Z,7.18
2023-02-22T05:09:40.794Z,6.80
2023-02-22T05:12:07.817Z,7.00
2023-02-22T05:14:35.532Z,7.40
2023-02-22T05:17:03.550Z,10.40
2023-02-22T05:19:30.767Z,10.00
2023-02-22T05:21:57.799Z,11.98
2023-02-22T05:24:24.897Z,8.98
2023-02-22T05:26:53.268Z,8.95
2023-02-22T05:29:21.117Z,8.35
2023-02-22T05:31:48.215Z,4.47
2023-02-22T05:34:15.684Z,4.75
2023-02-22T05:36:42.653Z,5.85
2023-02-22T05:39:09.977Z,4.88
2023-02-22T05:41:36.784Z,4.78
2023-02-22T05:44:04.099Z,5.05
2023-02-22T05:46:31.116Z,5.72
2023-02-22T05:48:58.501Z,6.65
2023-02-22T05:51:25.475Z,4.65
2023-02-22T05:53:52.633Z,4.13
2023-02-22T05:56:29.025Z,3.65
2023-02-22T05:58:56.975Z,4.10
2023-02-22T06:01:24.162Z,6.25
2023-02-22T06:03:51.936Z,3.92
2023-02-22T06:06:22.276Z,4.35
2023-02-22T06:08:49.895Z,3.42
2023-02-22T06:11:17.116Z,4.03
2023-02-22T06:13:53.020Z,3.40
2023-02-22T06:16:22.520Z,3.53
2023-02-22T06:18:50.325Z,2.58
2023-02-22T06:21:18.040Z,2.40
2023-02-22T06:23:45.316Z,2.67
2023-02-22T06:26:13.025Z,3.03
2023-02-22T06:28:39.867Z,3.95
2023-02-22T06:31:06.934Z,4.53
2023-02-22T06:33:33.807Z,4.82
2023-02-22T06:36:01.305Z,3.20
2023-02-22T06:38:29.440Z,3.40
2023-02-22T06:40:56.547Z,3.30
2023-02-22T06:43:24.961Z,3.22
2023-02-22T06:45:52.876Z,4.53
2023-02-22T06:48:19.865Z,3.30
2023-02-22T06:50:46.978Z,3.70
2023-02-22T06:53:13.781Z,3.53
2023-02-22T06:55:40.873Z,4.30
2023-02-22T06:58:07.644Z,3.53
2023-02-22T07:00:34.770Z,2.75
2023-02-22T07:03:03.959Z,3.15
2023-02-22T07:05:31.112Z,3.50
2023-02-22T07:08:04.546Z,2.88
2023-02-22T07:10:33.531Z,3.15
2023-02-22T07:13:01.242Z,3.17
2023-02-22T07:15:30.703Z,2.53
2023-02-22T07:17:57.920Z,3.03
2023-02-22T07:20:27.167Z,2.83
2023-02-22T07:22:54.383Z,3.63
2023-02-22T07:25:23.229Z,2.97
2023-02-22T07:27:52.500Z,3.58
2023-02-22T07:30:31.126Z,2.72
2023-02-22T07:33:01.161Z,2.72
2023-02-22T07:35:33.807Z,4.40
2023-02-22T07:38:00.880Z,2.97
2023-02-22T07:40:28.462Z,3.45
2023-02-22T07:43:01.221Z,3.42
2023-02-22T07:45:35.886Z,3.92
2023-02-22T07:48:04.308Z,3.78
2023-02-22T07:50:32.468Z,3.72
2023-02-22T07:53:03.149Z,3.28
2023-02-22T07:55:32.316Z,4.70
2023-02-22T07:58:02.311Z,2.72
2023-02-22T08:00:35.114Z,3.90
2023-02-22T08:03:05.029Z,3.45
2023-02-22T08:05:33.747Z,3.05
2023-02-22T08:08:00.571Z,2.72
2023-02-22T08:10:28.523Z,2.67
2023-02-22T08:12:56.043Z,3.17
2023-02-22T08:15:34.932Z,3.17
2023-02-22T08:18:04.036Z,3.00
2023-02-22T08:20:31.372Z,2.95
2023-02-22T08:22:59.130Z,3.03
2023-02-22T08:25:29.553Z,3.42
2023-02-22T08:28:08.922Z,2.70
2023-02-22T08:30:40.081Z,3.85
2023-02-22T08:33:07.710Z,3.13
2023-02-22T08:35:35.055Z,3.15
2023-02-22T08:38:05.535Z,3.60
2023-02-22T08:40:35.186Z,2.28
2023-02-22T08:43:03.452Z,3.00
2023-02-22T08:45:30.685Z,2.80
2023-02-22T08:47:58.604Z,2.63
2023-02-22T08:50:33.591Z,3.15
2023-02-22T08:53:02.306Z,2.40
2023-02-22T08:55:32.392Z,3.22
2023-02-22T08:58:03.174Z,2.53
2023-02-22T09:00:33.297Z,2.55
2023-02-22T09:03:02.216Z,2.50
2023-02-22T09:05:31.459Z,2.50
2023-02-22T09:07:59.354Z,2.63
2023-02-22T09:10:29.364Z,3.05
2023-02-22T09:12:57.180Z,2.80
2023-02-22T09:15:25.903Z,2.40
2023-02-22T09:17:53.609Z,2.25
2023-02-22T09:20:22.376Z,2.17
2023-02-22T09:22:50.140Z,2.28
2023-02-22T09:25:18.333Z,2.67
2023-02-22T09:27:51.747Z,2.15
2023-02-22T09:30:23.985Z,2.40
2023-02-22T09:32:53.334Z,2.40
2023-02-22T09:35:26.963Z,2.50
2023-02-22T09:37:58.509Z,1.80
2023-02-22T09:43:21.241Z,2.22
2023-02-22T09:46:26.918Z,1.83
2023-02-22T09:49:00.091Z,1.50
2023-02-22T09:51:49.415Z,1.73
2023-02-22T09:54:29.753Z,1.55
2023-02-22T09:57:00.719Z,1.98
2023-02-22T09:59:32.048Z,1.48
2023-02-22T10:02:32.782Z,1.27
2023-02-22T10:05:12.203Z,1.15
2023-02-22T10:07:47.184Z,1.13
2023-02-22T10:10:20.945Z,1.30
2023-02-22T10:12:56.959Z,1.42
2023-02-22T10:15:35.845Z,0.90
2023-02-22T10:18:32.935Z,1.13
2023-02-22T10:21:11.878Z,1.25
2023-02-22T10:23:47.302Z,1.30
2023-02-22T10:26:14.059Z,1.15
2023-02-22T10:28:55.375Z,1.13
2023-02-22T10:31:33.894Z,1.20
2023-02-22T10:34:03.311Z,1.52
2023-02-22T10:36:30.432Z,1.30
2023-02-22T10:39:12.355Z,1.00
2023-02-22T10:41:49.349Z,1.50
2023-02-22T10:44:19.160Z,1.20
2023-02-22T10:46:47.470Z,1.50
2023-02-22T10:49:21.922Z,1.30
2023-02-22T10:52:01.197Z,1.90
2023-02-22T10:54:40.584Z,1.10
2023-02-22T10:57:07.861Z,1.10
2023-02-22T10:59:40.165Z,1.27
2023-02-22T11:02:29.642Z,1.05
2023-02-22T11:05:01.441Z,1.25
2023-02-22T11:07:28.577Z,1.30
2023-02-22T11:10:08.246Z,1.23
2023-02-22T11:12:37.753Z,1.45
2023-02-22T11:15:22.558Z,1.40
2023-02-22T11:17:52.563Z,1.05
2023-02-22T11:20:25.726Z,1.20
2023-02-22T11:23:02.004Z,1.20
2023-02-22T11:25:33.797Z,1.10
2023-02-22T11:28:16.718Z,1.00
2023-02-22T11:30:49.712Z,1.00
2023-02-22T11:33:17.060Z,1.20
2023-02-22T11:35:52.831Z,1.50
2023-02-22T11:38:21.315Z,1.10
2023-02-22T11:41:07.991Z,0.85
2023-02-22T11:43:35.495Z,1.30
2023-02-22T11:46:08.373Z,1.42
2023-02-22T11:48:39.678Z,0.90
2023-02-22T11:51:14.810Z,1.45
2023-02-22T11:54:22.726Z,1.20
2023-02-22T11:56:55.733Z,1.45
2023-02-22T11:59:40.886Z,1.95
2023-02-22T12:02:57.354Z,1.23
2023-02-22T12:05:37.453Z,0.98
2023-02-22T12:08:26.993Z,1.05
2023-02-22T12:11:10.251Z,1.00
2023-02-22T12:14:09.795Z,1.23
2023-02-22T12:17:23.524Z,0.93
2023-02-22T12:19:52.739Z,1.25
2023-02-22T12:22:25.989Z,0.88
2023-02-22T12:25:08.542Z,3.25
2023-02-22T12:27:42.414Z,1.10
2023-02-22T12:30:16.595Z,0.80
2023-02-22T12:32:48.704Z,1.67
2023-02-22T12:35:19.513Z,2.10
2023-02-22T12:38:01.914Z,1.52
2023-02-22T12:40:54.665Z,1.08
2023-02-22T12:43:47.436Z,1.10
2023-02-22T12:46:35.398Z,1.17
2023-02-22T12:49:42.764Z,1.10
2023-02-22T12:52:22.344Z,2.10
2023-02-22T12:55:02.162Z,0.70
2023-02-22T12:57:51.840Z,1.00
2023-02-22T13:00:28.834Z,1.00
2023-02-22T13:03:17.746Z,0.60
2023-02-22T13:05:51.490Z,1.10
2023-02-22T13:08:18.721Z,1.95
2023-02-22T13:11:04.626Z,0.80
2023-02-22T13:13:41.696Z,1.00
2023-02-22T13:16:21.923Z,0.98
2023-02-22T13:19:00.644Z,1.30
2023-02-22T13:21:37.188Z,1.40
2023-02-22T13:24:33.946Z,1.30
2023-02-22T13:27:06.757Z,1.60
2023-02-22T13:29:41.724Z,2.17
2023-02-22T13:32:13.704Z,0.93
2023-02-22T13:35:18.261Z,1.10
2023-02-22T13:38:16.838Z,1.00
2023-02-22T13:41:19.147Z,1.20
2023-02-22T13:44:15.154Z,1.50
2023-02-22T13:46:57.127Z,1.17
2023-02-22T13:49:52.083Z,1.17
2023-02-22T13:52:24.776Z,1.60
2023-02-22T13:54:58.018Z,2.30
2023-02-22T13:57:33.543Z,2.08
2023-02-22T14:00:15.750Z,1.65
2023-02-22T14:03:02.829Z,1.20
2023-02-22T14:05:42.529Z,2.80
2023-02-22T14:08:37.109Z,2.63
2023-02-22T14:11:14.148Z,1.33
2023-02-22T14:14:00.853Z,1.70
2023-02-22T14:16:31.959Z,1.20
2023-02-22T14:19:13.505Z,3.80
2023-02-22T14:22:04.335Z,2.15
2023-02-22T14:24:46.963Z,2.85
2023-02-22T14:27:17.680Z,1.30
2023-02-22T14:30:01.464Z,1.30
2023-02-22T14:32:34.545Z,1.42
2023-02-22T14:35:25.498Z,1.45
2023-02-22T14:37:58.344Z,1.60
2023-02-22T14:40:34.983Z,1.50
2023-02-22T14:43:12.853Z,1.92
2023-02-22T14:46:01.787Z,1.15
2023-02-22T14:48:45.085Z,1.10
2023-02-22T14:51:26.864Z,1.38
2023-02-22T14:54:20.648Z,2.05
2023-02-22T14:57:12.247Z,1.48
2023-02-22T14:59:53.257Z,1.00
2023-02-22T15:02:26.076Z,1.45
2023-02-22T15:04:56.565Z,1.35
2023-02-22T15:07:30.731Z,1.80
2023-02-22T15:10:41.677Z,2.10
2023-02-22T15:13:28.033Z,1.23
2023-02-22T15:16:02.111Z,1.88
2023-02-22T15:18:40.687Z,2.30
2023-02-22T15:21:13.437Z,2.00
2023-02-22T15:23:57.147Z,2.63
2023-02-22T15:26:31.615Z,2.58
2023-02-22T15:28:59.959Z,2.58
2023-02-22T15:31:30.453Z,3.83
2023-02-22T15:33:58.185Z,4.57
2023-02-22T15:36:33.772Z,4.32
2023-02-22T15:39:01.188Z,3.42
2023-02-22T15:41:34.138Z,4.03
2023-02-22T15:44:28.005Z,3.97
2023-02-22T15:46:56.621Z,8.57
2023-02-22T15:49:24.815Z,7.13
2023-02-22T15:52:04.117Z,5.70
2023-02-22T15:54:42.729Z,4.47
2023-02-22T15:57:14.589Z,4.93
2023-02-22T15:59:45.645Z,4.05
2023-02-22T16:02:32.750Z,5.07
2023-02-22T16:05:07.199Z,4.85
2023-02-22T16:07:45.316Z,6.07
2023-02-22T16:10:27.533Z,6.82
2023-02-22T16:13:06.666Z,9.15
2023-02-22T16:15:35.844Z,12.52
2023-02-22T16:18:26.089Z,10.15
2023-02-22T16:21:21.654Z,10.95
2023-02-22T16:23:55.971Z,9.65
2023-02-22T16:26:34.383Z,10.45
2023-02-22T16:29:08.732Z,14.80
2023-02-22T16:31:40.208Z,13.02
2023-02-22T16:34:08.430Z,13.27
2023-02-22T16:36:45.566Z,16.08
2023-02-22T16:39:31.448Z,17.08
2023-02-22T16:42:06.082Z,17.02
2023-02-22T16:44:34.729Z,16.73
2023-02-22T16:47:01.690Z,25.85
2023-02-22T16:49:28.601Z,24.00
2023-02-22T16:52:01.770Z,24.80
2023-02-22T16:54:34.341Z,22.17
2023-02-22T16:57:04.061Z,29.52
2023-02-22T16:59:39.270Z,25.40
2023-02-22T17:02:07.747Z,23.10
2023-02-22T17:04:34.788Z,22.98
2023-02-22T17:07:05.106Z,25.73
2023-02-22T17:09:33.181Z,26.90
2023-02-22T17:12:00.835Z,27.52
2023-02-22T17:14:32.466Z,28.10
2023-02-22T17:17:00.298Z,29.88
2023-02-22T17:19:27.714Z,28.83
2023-02-22T17:21:54.869Z,26.63
2023-02-22T17:24:25.012Z,26.55
2023-02-22T17:26:54.891Z,24.98
2023-02-22T17:29:21.937Z,49.60
2023-02-22T17:31:49.320Z,30.35
2023-02-22T17:34:21.836Z,30.35
2023-02-22T17:36:49.402Z,21.40
2023-02-22T17:39:16.537Z,16.05
2023-02-22T17:41:43.470Z,28.33
2023-02-22T17:44:10.299Z,17.70
2023-02-22T17:46:37.562Z,20.75
2023-02-22T17:49:04.603Z,18.90
2023-02-22T17:51:31.627Z,17.38
2023-02-22T17:54:01.155Z,10.15
2023-02-22T17:56:28.233Z,7.57
2023-02-22T17:58:55.699Z,7.47
2023-02-22T18:01:29.034Z,7.40
2023-02-22T18:03:59.664Z,9.60
2023-02-22T18:06:30.002Z,10.48
2023-02-22T18:08:58.920Z,9.23
2023-02-22T18:11:28.142Z,5.55
2023-02-22T18:13:57.482Z,8.30
2023-02-22T18:16:26.142Z,7.93
2023-02-22T18:18:56.011Z,7.75
2023-02-22T18:21:23.769Z,9.00
2023-02-22T18:23:50.854Z,8.20
2023-02-22T18:26:19.698Z,9.27
2023-02-22T18:28:49.196Z,8.75
2023-02-22T18:31:18.470Z,8.43
2023-02-22T18:33:48.230Z,7.60
2023-02-22T18:36:16.765Z,7.80
2023-02-22T18:38:44.625Z,3.70
2023-02-22T18:41:16.234Z,3.75
2023-02-22T18:43:44.112Z,7.75
2023-02-22T18:46:13.825Z,5.22
2023-02-22T18:48:41.578Z,7.10
2023-02-22T18:51:11.352Z,6.53
2023-02-22T18:53:41.608Z,6.70
2023-02-22T18:56:11.861Z,8.98
2023-02-22T18:58:39.344Z,6.47
2023-02-22T19:01:07.611Z,6.32
2023-02-22T19:03:38.242Z,4.35
2023-02-22T19:06:09.876Z,4.03
2023-02-22T19:08:39.688Z,3.45
2023-02-22T19:11:12.935Z,4.93
2023-02-22T19:13:39.884Z,4.82
2023-02-22T19:16:07.545Z,4.70
2023-02-22T19:18:35.023Z,5.63
2023-02-22T19:21:03.750Z,6.88
2023-02-22T19:23:34.523Z,4.28
2023-02-22T19:26:04.333Z,4.30
2023-02-22T19:28:36.974Z,5.35
2023-02-22T19:31:18.668Z,4.70
2023-02-22T19:33:47.586Z,4.40
2023-02-22T19:36:15.675Z,3.80
2023-02-22T19:38:43.422Z,5.32
2023-02-22T19:41:22.183Z,26.50
2023-02-22T19:43:51.808Z,28.30
2023-02-22T19:46:21.222Z,14.95
2023-02-22T19:48:49.259Z,12.82
2023-02-22T19:51:18.243Z,12.27
2023-02-22T19:53:46.320Z,8.25
2023-02-22T19:56:16.855Z,7.40
2023-02-22T19:58:45.521Z,9.00
2023-02-22T20:01:22.889Z,9.25
2023-02-22T20:03:54.579Z,21.75
2023-02-22T20:06:26.465Z,19.02
2023-02-22T20:08:54.932Z,17.15
2023-02-22T20:11:23.491Z,13.00
2023-02-22T20:13:50.676Z,18.13
2023-02-22T20:16:17.931Z,14.52
2023-02-22T20:18:46.370Z,11.15
2023-02-22T20:21:20.502Z,15.45
2023-02-22T20:23:48.117Z,13.95
2023-02-22T20:29:31.583Z,9.20
2023-02-22T20:32:11.415Z,9.43
2023-02-22T20:34:38.714Z,13.25
2023-02-22T20:37:05.473Z,32.60
2023-02-22T20:39:32.713Z,22.27
2023-02-22T20:42:04.695Z,20.15
2023-02-22T20:44:31.722Z,18.45
2023-02-22T20:46:58.787Z,21.80
2023-02-22T20:49:27.277Z,17.67
2023-02-22T20:51:54.070Z,24.50
2023-02-22T20:54:21.082Z,8.65
2023-02-22T20:56:48.453Z,8.18
2023-02-22T20:59:18.420Z,9.10
2023-02-22T21:01:47.565Z,7.75
2023-02-22T21:04:14.794Z,9.02
2023-02-22T21:06:41.915Z,8.75
2023-02-22T21:09:16.288Z,9.15
2023-02-22T21:11:44.267Z,11.00
2023-02-22T21:14:16.783Z,13.48
2023-02-22T21:16:46.581Z,17.90
2023-02-22T21:19:28.038Z,15.02
2023-02-22T21:24:29.579Z,13.50
2023-02-22T21:26:59.096Z,9.73
2023-02-22T21:29:27.113Z,4.75
2023-02-22T21:31:54.140Z,5.03
2023-02-22T21:34:22.357Z,5.53
2023-02-22T21:36:51.175Z,6.47
2023-02-22T21:39:18.207Z,4.53
2023-02-22T21:41:47.059Z,5.18
2023-02-22T21:44:15.063Z,4.93
2023-02-22T21:46:42.205Z,4.25
2023-02-22T21:49:11.182Z,5.07
2023-02-22T21:51:38.289Z,5.47
2023-02-22T21:54:08.361Z,8.93
2023-02-22T21:56:41.324Z,10.20
2023-02-22T21:59:15.228Z,7.05
2023-02-22T22:01:50.136Z,6.80
2023-02-22T22:04:20.424Z,8.48
2023-02-22T22:06:50.972Z,5.70
2023-02-22T22:09:19.605Z,6.43
2023-02-22T22:11:49.705Z,7.28
2023-02-22T22:14:19.026Z,4.82
2023-02-22T22:16:47.998Z,6.15
2023-02-22T22:19:15.447Z,5.85
2023-02-22T22:21:42.908Z,6.93
2023-02-22T22:24:13.640Z,5.97
2023-02-22T22:26:40.857Z,5.93
2023-02-22T22:29:10.482Z,9.27
2023-02-22T22:31:38.049Z,6.68
2023-02-22T22:34:05.716Z,5.40
2023-02-22T22:36:34.454Z,6.97
2023-02-22T22:39:01.540Z,7.18
2023-02-22T22:41:28.505Z,5.13
2023-02-22T22:43:55.968Z,5.80
2023-02-22T22:46:23.611Z,6.95
2023-02-22T22:48:50.438Z,6.32
2023-02-22T22:51:20.951Z,5.50
2023-02-22T22:53:49.569Z,6.28
2023-02-22T22:56:17.717Z,6.22
2023-02-22T22:58:50.831Z,6.13
2023-02-22T23:01:20.542Z,5.50
2023-02-22T23:03:55.014Z,5.15
2023-02-22T23:06:24.995Z,5.03
2023-02-22T23:09:00.125Z,5.20
2023-02-22T23:11:33.868Z,4.78
2023-02-22T23:14:03.693Z,5.07
2023-02-22T23:16:34.854Z,4.85
2023-02-22T23:19:01.884Z,5.22
2023-02-22T23:21:28.709Z,4.90
2023-02-22T23:23:58.598Z,5.38
2023-02-22T23:26:26.791Z,4.57
2023-02-22T23:28:59.320Z,4.78
2023-02-22T23:31:28.985Z,5.07
2023-02-22T23:33:58.889Z,4.85
2023-02-22T23:36:27.125Z,4.88
2023-02-22T23:38:54.383Z,4.70
2023-02-22T23:41:25.039Z,5.20
2023-02-22T23:43:52.006Z,5.68
2023-02-22T23:46:19.606Z,5.80
2023-02-22T23:48:54.838Z,4.72
2023-02-22T23:51:27.052Z,4.97
2023-02-22T23:53:58.203Z,5.57
2023-02-22T23:56:27.413Z,4.88
2023-02-22T23:58:57.530Z,5.63
